Hlavní strana
METAR-TAF:

METAR-TAF

Letiště :

Groznyj, Rusko

zeměpisná šířka: 43-23-18N, zeměpisná délka: 045-41-59E, výška: 167 m

Aktuální stav počasí

Zpráva byla vytvořena před 15 minutami, v 21:30 UTC
Západoseverozápadní vítr 2 kt
Teplota -1°C
Vlhkost vzduchu 93%
Tlak 1021 hPa
Viditelnost: 7000 m

METAR: URMG 182130Z 29001MPS 7000 NSC M01/M02 Q1021 R26/190060 NOSIG RMK QFE751/1001

Čas: 00:45 (21:45 UTC)

Předpověď počasí

Zpráva byla vytvořena před 1 hodinou a 45 minutami, v 20:00 UTC
Předpověď platná od 18 v 21 UTC do 19 v 06 UTC
Západní vítr 6 kt s nárazy do 16 kt
Viditelnost: 6000 m
Oblačno až skoro zataženo ve výšce 1600 ft
Dočasný
od 18 v 21 UTC do 19 v 06 UTC
vítr z různých směrů 2 kt
Viditelnost: 0300 m
Oblačno až skoro zataženo ve výšce 200 ft
mrznoucí mlha

TAF: URMG 182000Z 1821/1906 26003G08MPS 6000 BKN016 TEMPO 1821/1906 VRB01MPS 0300 FZFG BKN002

Stav a předpovědi počasí z více než 4 000 letišť (zprávy METAR a TAF).

Červené a žluté tečky na mapě představují dostupné meteorologické stanice.

Když kurzor umístíte na tečku, zobrazí se název stanice.

Pak kliknutím zobrazíte stav a předpověď počasí.

Chcete-li změnit mapu, kliknutím na zelené tlačítko se znaménkem +mapu přiblížíte, kliknutím na zelené tlačítko se znaménkem – mapu oddálíte a kliknutím na zelené šipky přejdete na sousední mapy.


METAR-TAF: